Time;durP1;ratioP1;P1;durP2;ratioP2;P2;SDS_P1;SDS_P2;PMS_P1;PMS_P2;Temp;Humidity;BMP_temperature;BMP_pressure;BME280_temperature;BME280_humidity;BME280_pressure;Samples;Min_cycle;Max_cycle;Signal;HPM_P1;HPM_P2
2022/12/25 01:07:23;;;;;;;;;;;;;;;;;;;;;
2022/12/25 02:20:14;;;;;;;16.30;5.47;;;;;;;8.05;100.00;101324.38;4899055;29;20135;-94
2022/12/25 05:47:59;;;;;;;7.80;1.77;;;;;;;7.93;100.00;101158.34;4897732;29;20047;-93
2022/12/25 06:33:55;;;;;;;;;;;;;;;;;;;;;
2022/12/25 06:37:55;;;;;;;;;;;;;;;;;;;;;
2022/12/25 06:44:38;;;;;;;;;;;;;;;;;;;;;
2022/12/25 06:50:42;;;;;;;7.55;1.40;;;;;;;8.30;100.00;101063.69;4897942;29;20048;-93
2022/12/25 06:55:54;;;;;;;;;;;;;;;;;;;;;
2022/12/25 06:58:48;;;;;;;7.13;1.70;;;;;;;8.31;100.00;101036.47;5017544;28;20409;-93
2022/12/25 07:02:07;;;;;;;7.00;1.88;;;;;;;8.37;100.00;101033.00;4984704;28;20027;-93
2022/12/25 07:13:25;;;;;;;6.38;1.60;;;;;;;8.47;100.00;101042.66;5699896;22;20049;-93
2022/12/25 07:22:41;;;;;;;;;;;;;;;;;;;;;
2022/12/25 07:26:18;;;;;;;;;;;;;;;;;;;;;
2022/12/25 07:32:50;;;;;;;5.20;1.30;;;;;;;8.60;100.00;101089.56;4918121;29;20087;-90
2022/12/25 07:35:28;;;;;;;6.38;1.50;;;;;;;8.52;100.00;101083.44;4886670;29;20137;-89
2022/12/25 07:37:58;;;;;;;5.22;1.50;;;;;;;8.57;100.00;101078.31;4902739;29;20339;-88
2022/12/25 07:40:37;;;;;;;;;;;;;;;;;;;;;
2022/12/25 07:43:08;;;;;;;4.53;1.50;;;;;;;8.65;100.00;101050.25;4996720;28;20036;-92
2022/12/25 07:45:53;;;;;;;6.35;2.05;;;;;;;8.67;100.00;101035.50;4962799;28;20038;-91
2022/12/25 07:48:32;;;;;;;5.38;1.83;;;;;;;8.68;100.00;101047.16;4979557;28;20374;-92
2022/12/25 07:51:16;;;;;;;6.07;1.90;;;;;;;8.71;100.00;101050.31;4963610;28;20042;-92
2022/12/25 07:54:47;;;;;;;8.20;2.17;;;;;;;8.76;100.00;101066.78;4979579;28;20073;-92
2022/12/25 07:58:18;;;;;;;;;;;;;;;;;;;;;
2022/12/25 08:00:54;;;;;;;;;;;;;;;;;;;;;
2022/12/25 08:07:28;;;;;;;;;;;;;;;;;;;;;
2022/12/25 08:10:51;;;;;;;5.72;1.80;;;;;;;8.86;100.00;101101.63;4977724;28;20038;-93
2022/12/25 08:13:36;;;;;;;;;;;;;;;;;;;;;
2022/12/25 08:16:47;;;;;;;;;;;;;;;;;;;;;
2022/12/25 08:23:34;;;;;;;4.35;1.60;;;;;;;8.80;100.00;101132.16;5001149;28;20508;-94
2022/12/25 08:26:07;;;;;;;6.68;2.00;;;;;;;8.82;100.00;101102.22;4980957;28;20034;-93
2022/12/25 08:31:56;;;;;;;;;;;;;;;;;;;;;
2022/12/25 08:34:40;;;;;;;5.43;1.80;;;;;;;8.97;100.00;101113.75;4996145;28;20455;-92
2022/12/25 08:37:23;;;;;;;;;;;;;;;;;;;;;
2022/12/25 08:39:53;;;;;;;8.30;1.90;;;;;;;9.08;100.00;101123.16;4980828;28;20040;-91
2022/12/25 08:42:22;;;;;;;10.05;2.05;;;;;;;9.01;100.00;101127.75;4965142;28;20049;-91
2022/12/25 08:45:02;;;;;;;;;;;;;;;;;;;;;
2022/12/25 08:48:00;;;;;;;9.40;2.08;;;;;;;9.08;100.00;101139.41;4995560;28;20042;-90
2022/12/25 08:50:46;;;;;;;6.32;2.35;;;;;;;8.93;100.00;101117.88;4933545;28;20046;-90
2022/12/25 08:53:19;;;;;;;9.40;2.22;;;;;;;8.88;100.00;101117.66;4977828;28;20459;-90
2022/12/25 08:56:10;;;;;;;;;;;;;;;;;;;;;
2022/12/25 08:58:44;;;;;;;8.05;1.90;;;;;;;8.75;100.00;101104.84;4995756;28;20030;-92
2022/12/25 09:01:33;;;;;;;6.82;2.35;;;;;;;8.74;100.00;101105.88;4977893;28;20038;-91
2022/12/25 09:04:46;;;;;;;7.90;2.40;;;;;;;8.66;100.00;101092.50;4998106;28;20094;-92
2022/12/25 09:07:27;;;;;;;5.15;2.03;;;;;;;8.58;100.00;101091.63;4994963;28;20085;-92
2022/12/25 09:10:04;;;;;;;6.82;2.05;;;;;;;8.50;100.00;101096.34;4962464;28;20069;-92
2022/12/25 09:12:47;;;;;;;6.05;2.10;;;;;;;8.49;100.00;101083.84;4979111;28;20037;-93
2022/12/25 09:15:20;;;;;;;5.00;1.80;;;;;;;8.50;100.00;101101.75;4978352;28;20096;-93
2022/12/25 09:17:48;;;;;;;8.13;2.40;;;;;;;8.43;100.00;101121.44;4961541;28;20042;-93
2022/12/25 09:21:00;;;;;;;6.43;2.63;;;;;;;8.38;100.00;101118.47;4977866;28;20034;-93
2022/12/25 09:55:18;;;;;;;;;;;;;;;;;;;;;
2022/12/25 10:02:14;;;;;;;8.77;2.88;;;;;;;8.28;100.00;101066.59;4841230;29;20257;-93
2022/12/25 10:08:45;;;;;;;6.47;2.83;;;;;;;8.55;100.00;101064.97;4878570;29;20047;-93
2022/12/25 10:12:04;;;;;;;;;;;;;;;;;;;;;
2022/12/25 10:14:53;;;;;;;10.02;3.47;;;;;;;8.56;100.00;101041.47;4945042;28;20045;-94
2022/12/25 10:17:36;;;;;;;8.32;3.63;;;;;;;8.63;100.00;101038.81;4993860;28;20034;-91
2022/12/25 10:20:40;;;;;;;;;;;;;;;;;;;;;
2022/12/25 10:23:34;;;;;;;9.93;3.60;;;;;;;8.72;100.00;101033.03;4994838;28;20481;-91
2022/12/25 10:26:03;;;;;;;7.97;4.20;;;;;;;8.77;100.00;101038.69;4957039;28;20042;-90
2022/12/25 10:28:42;;;;;;;7.03;4.45;;;;;;;8.77;100.00;101032.47;4976607;28;20050;-91
2022/12/25 10:31:54;;;;;;;;;;;;;;;;;;;;;
2022/12/25 10:34:31;;;;;;;;;;;;;;;;;;;;;
2022/12/25 10:37:00;;;;;;;10.82;4.28;;;;;;;8.79;100.00;101041.19;4997893;28;20034;-92
2022/12/25 10:39:52;;;;;;;7.70;4.47;;;;;;;8.69;100.00;101033.44;4980327;28;20043;-91
2022/12/25 10:42:40;;;;;;;6.65;3.97;;;;;;;8.66;100.00;101044.66;4982943;28;20039;-92
2022/12/25 10:45:10;;;;;;;6.97;4.03;;;;;;;8.68;100.00;101044.44;4980624;28;20030;-92
2022/12/25 10:48:17;;;;;;;;;;;;;;;;;;;;;
2022/12/25 10:50:58;;;;;;;;;;;;;;;;;;;;;
2022/12/25 10:53:49;;;;;;;10.88;4.15;;;;;;;8.73;100.00;101006.84;4997679;28;20038;-93
2022/12/25 10:56:58;;;;;;;10.15;3.75;;;;;;;8.73;100.00;100990.59;4964858;28;20052;-92
2022/12/25 11:02:53;;;;;;;9.15;3.92;;;;;;;8.84;100.00;100989.19;4983559;28;20040;-93
2022/12/25 11:05:56;;;;;;;11.75;4.30;;;;;;;8.90;100.00;101000.06;4980206;28;20037;-92
2022/12/25 11:08:57;;;;;;;8.25;4.18;;;;;;;8.87;100.00;100997.75;4979598;28;20502;-93
2022/12/25 11:11:40;;;;;;;;;;;;;;;;;;;;;
2022/12/25 11:14:26;;;;;;;7.70;4.13;;;;;;;8.89;100.00;100987.56;4998570;28;20390;-93
2022/12/25 11:17:27;;;;;;;9.23;4.60;;;;;;;8.99;100.00;100976.38;4995811;28;20058;-92
2022/12/25 11:24:00;;;;;;;7.85;3.70;;;;;;;9.02;100.00;100964.28;4919549;29;20152;-95
2022/12/25 11:27:17;;;;;;;;;;;;;;;;;;;;;
2022/12/25 11:29:41;;;;;;;;;;;;;;;;;;;;;
2022/12/25 11:46:53;;;;;;;10.15;5.28;;;;;;;9.14;100.00;100930.22;4881297;29;20549;-91
2022/12/25 11:49:26;;;;;;;9.93;5.40;;;;;;;9.04;100.00;100914.34;4866542;29;20044;-89
2022/12/25 11:52:05;;;;;;;10.63;5.43;;;;;;;9.09;100.00;100920.00;4901687;29;20100;-91
2022/12/25 11:55:00;;;;;;;12.70;5.18;;;;;;;9.03;100.00;100901.84;4901705;29;20122;-89
2022/12/25 11:57:30;;;;;;;8.10;5.75;;;;;;;9.04;100.00;100906.22;4933683;28;20446;-89
2022/12/25 12:07:46;;;;;;;12.57;5.90;;;;;;;9.01;100.00;100912.03;4956062;28;20122;-91
2022/12/25 12:18:24;;;;;;;;;;;;;;;;;;;;;
2022/12/25 12:25:00;;;;;;;8.75;5.75;;;;;;;8.85;100.00;100894.28;4842396;29;20126;-88
2022/12/25 12:28:11;;;;;;;11.15;5.63;;;;;;;8.89;100.00;100887.44;4852369;29;20435;-90
2022/12/25 13:01:39;;;;;;;14.57;8.82;;;;;;;9.29;100.00;100865.88;4918070;28;20100;-90
2022/12/25 13:11:26;;;;;;;13.95;9.25;;;;;;;9.19;100.00;100849.19;4976022;28;20085;-89
2022/12/25 13:42:40;;;;;;;;;;;;;;;;;;;;;
2022/12/25 13:45:35;;;;;;;13.73;8.45;;;;;;;9.35;100.00;100793.00;4976073;28;20365;-89
2022/12/25 13:51:46;;;;;;;14.13;8.77;;;;;;;9.37;100.00;100797.13;4936674;29;20066;-91
2022/12/25 14:01:30;;;;;;;10.23;7.18;;;;;;;9.28;100.00;100782.16;4935807;29;20408;-92
2022/12/25 14:04:23;;;;;;;13.65;8.07;;;;;;;9.19;100.00;100786.13;4918671;29;20043;-92
2022/12/25 14:07:11;;;;;;;13.15;7.53;;;;;;;9.13;100.00;100776.94;4919449;29;20051;-90
2022/12/25 14:10:07;;;;;;;;;;;;;;;;;;;;;
2022/12/25 14:12:43;;;;;;;11.52;7.82;;;;;;;9.18;100.00;100774.44;4934435;29;20151;-90
2022/12/25 14:15:38;;;;;;;;;;;;;;;;;;;;;
2022/12/25 14:36:08;;;;;;;;;;;;;;;;;;;;;
2022/12/25 14:42:23;;;;;;;12.85;8.25;;;;;;;9.07;100.00;100751.53;4943750;28;20049;-91
2022/12/25 14:48:28;;;;;;;11.32;7.82;;;;;;;9.08;100.00;100774.88;4915866;29;20066;-89
2022/12/25 14:51:06;;;;;;;11.25;7.55;;;;;;;9.06;100.00;100776.94;4976339;28;20033;-89
2022/12/25 14:53:38;;;;;;;12.55;7.90;;;;;;;9.08;100.00;100774.00;4976638;28;20037;-90
2022/12/25 14:56:21;;;;;;;11.80;8.13;;;;;;;9.16;100.00;100776.53;4960477;28;20402;-89
2022/12/25 14:58:53;;;;;;;14.00;8.80;;;;;;;9.22;100.00;100761.34;4981533;28;20031;-89
2022/12/25 15:01:41;;;;;;;19.08;9.15;;;;;;;9.34;100.00;100777.78;4976329;28;20122;-90
2022/12/25 15:04:59;;;;;;;20.73;9.25;;;;;;;9.34;100.00;100773.19;4962572;28;20073;-89
2022/12/25 15:07:34;;;;;;;14.60;9.10;;;;;;;9.30;100.00;100761.97;4933734;29;20043;-89
2022/12/25 15:10:30;;;;;;;19.73;9.52;;;;;;;9.37;100.00;100761.94;4924816;28;20070;-87
2022/12/25 15:12:55;;;;;;;18.60;9.45;;;;;;;9.41;100.00;100775.91;4957974;28;20054;-88
2022/12/25 15:15:33;;;;;;;18.30;10.80;;;;;;;9.41;100.00;100773.19;4966738;28;20061;-88
2022/12/25 15:18:09;;;;;;;20.05;10.32;;;;;;;9.38;100.00;100773.63;4979094;28;20062;-89
2022/12/25 15:20:39;;;;;;;20.30;10.95;;;;;;;9.40;100.00;100772.34;4963115;28;20509;-90
2022/12/25 15:23:05;;;;;;;20.45;10.30;;;;;;;9.29;100.00;100757.56;4960457;28;20455;-92
2022/12/25 15:25:35;;;;;;;17.27;10.68;;;;;;;9.35;100.00;100755.09;4969486;28;20038;-87
2022/12/25 15:28:10;;;;;;;18.33;10.20;;;;;;;9.39;100.00;100761.72;4979441;28;20093;-90
2022/12/25 15:30:40;;;;;;;16.00;10.00;;;;;;;9.36;100.00;100748.59;4964261;28;20045;-93
2022/12/25 15:33:17;;;;;;;18.60;10.93;;;;;;;9.43;100.00;100755.72;4978946;28;20092;-91
2022/12/25 15:35:45;;;;;;;21.00;12.38;;;;;;;9.37;100.00;100751.09;4979317;28;20022;-93
2022/12/25 15:38:22;;;;;;;19.60;11.52;;;;;;;9.28;100.00;100758.59;4978907;28;20046;-90
2022/12/25 15:41:00;;;;;;;;;;;;;;;;;;;;;
2022/12/25 15:43:34;;;;;;;18.33;11.55;;;;;;;9.28;100.00;100745.06;4987636;28;20381;-90
2022/12/25 15:46:35;;;;;;;19.33;11.23;;;;;;;9.35;100.00;100758.63;4979175;28;20085;-91
2022/12/25 15:49:25;;;;;;;21.85;11.95;;;;;;;9.19;100.00;100754.44;4967331;28;20036;-94
2022/12/25 15:52:03;;;;;;;;;;;;;;;;;;;;;
2022/12/25 15:57:50;;;;;;;21.90;13.15;;;;;;;9.20;100.00;100745.28;4980513;28;20035;-88
2022/12/25 16:00:39;;;;;;;;;;;;;;;;;;;;;
2022/12/25 16:03:30;;;;;;;22.63;13.85;;;;;;;9.12;100.00;100757.19;4996238;28;20037;-93
2022/12/25 16:05:58;;;;;;;25.38;15.65;;;;;;;9.06;100.00;100747.16;4980505;28;20050;-93
2022/12/25 16:08:44;;;;;;;26.80;14.65;;;;;;;9.08;100.00;100747.81;4965098;28;20038;-88
2022/12/25 16:11:12;;;;;;;29.65;15.30;;;;;;;9.08;100.00;100742.38;4989529;28;20030;-87
2022/12/25 16:14:01;;;;;;;;;;;;;;;;;;;;;
2022/12/25 16:16:27;;;;;;;24.25;15.55;;;;;;;9.18;100.00;100733.81;4972381;28;20478;-87
2022/12/25 16:19:05;;;;;;;28.58;16.15;;;;;;;9.25;100.00;100744.66;4978433;28;20030;-87
2022/12/25 16:21:48;;;;;;;24.13;15.20;;;;;;;9.28;100.00;100744.25;4995462;28;20084;-88
2022/12/25 16:24:21;;;;;;;26.02;15.52;;;;;;;9.33;100.00;100749.03;4978696;28;20132;-88
2022/12/25 16:26:54;;;;;;;25.92;14.50;;;;;;;9.27;100.00;100739.88;4979485;28;20045;-88
2022/12/25 16:29:50;;;;;;;26.20;16.13;;;;;;;9.07;100.00;100726.34;4956504;28;20495;-87
2022/12/25 16:32:15;;;;;;;27.20;15.93;;;;;;;9.12;100.00;100734.66;4995426;28;20030;-87
2022/12/25 16:34:47;;;;;;;25.88;15.57;;;;;;;9.19;100.00;100748.22;4995680;28;20382;-88
2022/12/25 16:37:26;;;;;;;27.00;15.50;;;;;;;9.15;100.00;100747.78;4978777;28;20027;-89
2022/12/25 16:40:03;;;;;;;34.40;16.00;;;;;;;9.07;100.00;100742.59;4994767;28;20471;-88
2022/12/25 16:42:29;;;;;;;38.03;16.80;;;;;;;9.06;100.00;100739.03;4961114;28;20592;-88
2022/12/25 16:45:00;;;;;;;36.47;17.38;;;;;;;9.11;100.00;100735.72;4992258;28;20027;-89
2022/12/25 16:47:37;;;;;;;34.30;17.07;;;;;;;9.24;100.00;100751.13;4963378;28;20033;-88
2022/12/25 16:50:42;;;;;;;34.42;17.92;;;;;;;9.21;100.00;100743.41;4974716;28;20039;-88
2022/12/25 16:53:21;;;;;;;33.70;17.63;;;;;;;9.26;100.00;100730.91;4976293;28;20391;-87
2022/12/25 16:56:00;;;;;;;34.35;18.77;;;;;;;9.28;100.00;100731.53;4986847;28;20057;-88
2022/12/25 16:58:46;;;;;;;43.05;19.95;;;;;;;9.18;100.00;100716.75;4962992;28;20037;-88
2022/12/25 17:01:36;;;;;;;;;;;;;;;;;;;;;
2022/12/25 17:04:07;;;;;;;35.30;18.33;;;;;;;9.21;100.00;100725.31;4993688;28;20482;-88
2022/12/25 17:06:36;;;;;;;32.25;18.45;;;;;;;9.25;100.00;100728.44;4960623;28;20045;-89
2022/12/25 17:09:22;;;;;;;32.63;18.55;;;;;;;9.32;100.00;100737.38;4994073;28;20482;-91
2022/12/25 17:12:45;;;;;;;;;;;;;;;;;;;;;
2022/12/25 17:15:13;;;;;;;35.23;18.40;;;;;;;9.23;100.00;100753.00;4995562;28;20038;-90
2022/12/25 17:17:40;;;;;;;34.65;18.45;;;;;;;9.18;100.00;100743.84;4977715;28;20100;-90
2022/12/25 17:23:27;;;;;;;43.97;20.65;;;;;;;9.21;100.00;100754.25;4991079;28;20107;-90
2022/12/25 17:26:13;;;;;;;;;;;;;;;;;;;;;
2022/12/25 17:28:49;;;;;;;42.85;21.75;;;;;;;9.23;100.00;100731.34;4994620;28;20038;-90
2022/12/25 17:34:52;;;;;;;;;;;;;;;;;;;;;
2022/12/25 17:37:31;;;;;;;38.38;19.52;;;;;;;9.24;100.00;100719.47;4930333;29;20130;-88
2022/12/25 17:40:14;;;;;;;;;;;;;;;;;;;;;
2022/12/25 17:42:55;;;;;;;;;;;;;;;;;;;;;
2022/12/25 17:55:33;;;;;;;31.50;17.17;;;;;;;9.31;100.00;100727.56;4912611;29;20067;-92
2022/12/25 17:58:17;;;;;;;29.38;15.65;;;;;;;9.37;100.00;100734.03;4930881;29;20043;-89
2022/12/25 18:00:45;;;;;;;32.40;16.63;;;;;;;9.33;100.00;100711.13;4919241;29;20035;-89
2022/12/25 18:03:19;;;;;;;33.95;15.98;;;;;;;9.36;100.00;100716.97;4968061;28;20043;-89
2022/12/25 18:09:45;;;;;;;33.20;16.40;;;;;;;9.34;100.00;100715.50;4945138;28;20424;-92
2022/12/25 18:12:38;;;;;;;;;;;;;;;;;;;;;
2022/12/25 18:15:22;;;;;;;;;;;;;;;;;;;;;
2022/12/25 18:17:58;;;;;;;28.88;15.30;;;;;;;9.12;100.00;100723.84;4964416;28;20097;-91
2022/12/25 18:20:43;;;;;;;27.50;15.32;;;;;;;9.13;100.00;100715.50;4974949;28;20031;-89
2022/12/25 18:23:23;;;;;;;24.95;14.02;;;;;;;8.99;100.00;100719.28;4954735;28;20514;-88
2022/12/25 18:25:49;;;;;;;25.10;14.23;;;;;;;8.83;100.00;100717.81;4959678;28;20042;-88
2022/12/25 18:28:24;;;;;;;27.80;14.45;;;;;;;8.81;100.00;100732.59;4941719;28;20066;-87
2022/12/25 18:31:01;;;;;;;27.58;14.82;;;;;;;8.75;100.00;100737.78;4975231;28;20113;-91
2022/12/25 18:33:46;;;;;;;27.58;15.35;;;;;;;8.72;100.00;100740.06;4987776;28;20034;-96
2022/12/25 18:36:34;;;;;;;;;;;;;;;;;;;;;
2022/12/25 18:39:16;;;;;;;;;;;;;;;;;;;;;
2022/12/25 19:03:04;;;;;;;26.90;13.45;;;;;;;8.48;100.00;100736.06;4895737;29;20052;-96
2022/12/25 19:09:31;;;;;;;;;;;;;;;;;;;;;
2022/12/25 19:13:00;;;;;;;;;;;;;;;;;;;;;
2022/12/25 19:16:17;;;;;;;;;;;;;;;;;;;;;
2022/12/25 19:23:02;;;;;;;;;;;;;;;;;;;;;
2022/12/25 19:26:32;;;;;;;;;;;;;;;;;;;;;
2022/12/25 19:29:13;;;;;;;47.35;20.38;;;;;;;8.57;100.00;100730.25;4837927;29;20041;-96
2022/12/25 19:31:46;;;;;;;31.63;16.05;;;;;;;8.64;100.00;100748.38;4849032;29;20049;-96
2022/12/25 19:37:10;;;;;;;;;;;;;;;;;;;;;
2022/12/25 19:39:47;;;;;;;32.60;16.40;;;;;;;8.64;100.00;100751.91;4921515;29;20115;-96
2022/12/25 19:42:23;;;;;;;;;;;;;;;;;;;;;
2022/12/25 19:45:05;;;;;;;43.55;18.65;;;;;;;8.67;100.00;100735.28;4963103;29;20118;-96
2022/12/25 19:47:44;;;;;;;42.45;18.02;;;;;;;8.65;100.00;100737.34;4976139;28;20047;-96
2022/12/25 20:08:10;;;;;;;;;;;;;;;;;;;;;
2022/12/25 20:10:57;;;;;;;;;;;;;;;;;;;;;
2022/12/25 20:13:56;;;;;;;;;;;;;;;;;;;;;
2022/12/25 20:20:02;;;;;;;32.63;16.00;;;;;;;8.72;100.00;100745.47;4976429;28;20121;-96
2022/12/25 20:25:29;;;;;;;34.60;16.10;;;;;;;8.73;100.00;100749.84;4983408;28;20038;-96
2022/12/25 20:31:51;;;;;;;;;;;;;;;;;;;;;
2022/12/25 20:37:34;;;;;;;36.35;16.05;;;;;;;8.73;100.00;100750.66;4990723;28;20038;-96
2022/12/25 20:40:13;;;;;;;31.38;14.98;;;;;;;8.73;100.00;100752.56;4978092;28;20042;-96
2022/12/25 20:53:07;;;;;;;38.05;16.63;;;;;;;8.70;100.00;100764.59;5126165;23;20065;-96
2022/12/25 21:13:44;;;;;;;37.30;15.57;;;;;;;8.72;100.00;100772.53;5170864;23;20057;-96
2022/12/25 21:16:48;;;;;;;;;;;;;;;;;;;;;
2022/12/25 21:19:30;;;;;;;;;;;;;;;;;;;;;
2022/12/25 21:22:18;;;;;;;42.65;16.08;;;;;;;8.72;100.00;100796.88;5020382;28;20553;-96
2022/12/25 21:28:28;;;;;;;40.03;15.65;;;;;;;8.72;100.00;100794.97;4978975;28;20039;-96
2022/12/25 21:33:50;;;;;;;33.35;15.23;;;;;;;8.72;100.00;100802.28;4922230;29;20043;-96
2022/12/25 21:35:02;;;;;;;;;;;;;;;;;;;;;
2022/12/25 21:40:50;;;;;;;40.85;16.05;;;;;;;8.79;100.00;100813.94;4958589;28;20542;-96
2022/12/25 21:43:49;;;;;;;;;;;;;;;;;;;;;
2022/12/25 21:46:57;;;;;;;40.55;16.20;;;;;;;8.78;100.00;100826.66;4967963;28;20107;-96
2022/12/25 21:52:50;;;;;;;40.78;16.80;;;;;;;8.72;100.00;100821.22;4960895;28;20129;-96
2022/12/25 21:55:33;;;;;;;;;;;;;;;;;;;;;
2022/12/25 21:58:21;;;;;;;47.20;17.83;;;;;;;8.75;100.00;100828.91;4940215;28;20390;-96
2022/12/25 22:01:12;;;;;;;43.42;17.38;;;;;;;8.80;100.00;100853.50;4920052;28;20537;-96
2022/12/25 22:04:35;;;;;;;;;;;;;;;;;;;;;
2022/12/25 22:07:34;;;;;;;51.13;19.90;;;;;;;8.79;100.00;100846.41;4990628;28;20050;-96
2022/12/25 22:10:14;;;;;;;;;;;;;;;;;;;;;
2022/12/25 22:57:57;;;;;;;;;;;;;;;;;;;;;
2022/12/25 23:09:26;;;;;;;;;;;;;;;;;;;;;
2022/12/25 23:37:03;;;;;;;;;;;;;;;;;;;;;
2022/12/25 23:43:30;;;;;;;;;;;;;;;;;;;;;
